sensor_id;sensor_type;location;lat;lon;timestamp;P1;P2;P0
67892;PMS7003;54688;52.376;16.744;2023-12-07T00:01:41;76;62;
67892;PMS7003;54688;52.376;16.744;2023-12-07T00:04:43;76;57;
67892;PMS7003;54688;52.376;16.744;2023-12-07T00:07:46;83;65;
67892;PMS7003;54688;52.376;16.744;2023-12-07T00:10:49;69;52;
67892;PMS7003;54688;52.376;16.744;2023-12-07T00:13:51;76;61;
67892;PMS7003;54688;52.376;16.744;2023-12-07T00:16:53;67;53;
67892;PMS7003;54688;52.376;16.744;2023-12-07T00:19:55;74;58;
67892;PMS7003;54688;52.376;16.744;2023-12-07T00:22:58;71;54;
67892;PMS7003;54688;52.376;16.744;2023-12-07T00:26:00;76;55;
67892;PMS7003;54688;52.376;16.744;2023-12-07T00:29:02;72;59;
67892;PMS7003;54688;52.376;16.744;2023-12-07T00:32:05;78;66;
67892;PMS7003;54688;52.376;16.744;2023-12-07T00:35:07;73;55;
67892;PMS7003;54688;52.376;16.744;2023-12-07T00:38:09;78;62;
67892;PMS7003;54688;52.376;16.744;2023-12-07T00:41:12;74;55;
67892;PMS7003;54688;52.376;16.744;2023-12-07T00:44:14;78;61;
67892;PMS7003;54688;52.376;16.744;2023-12-07T00:47:17;73;57;
67892;PMS7003;54688;52.376;16.744;2023-12-07T00:50:19;67;51;
67892;PMS7003;54688;52.376;16.744;2023-12-07T00:53:22;69;53;
67892;PMS7003;54688;52.376;16.744;2023-12-07T00:56:25;76;58;
67892;PMS7003;54688;52.376;16.744;2023-12-07T00:59:27;86;66;
67892;PMS7003;54688;52.376;16.744;2023-12-07T01:02:29;85;69;
67892;PMS7003;54688;52.376;16.744;2023-12-07T01:05:32;79;61;
67892;PMS7003;54688;52.376;16.744;2023-12-07T01:08:34;75;57;
67892;PMS7003;54688;52.376;16.744;2023-12-07T01:11:37;77;56;
67892;PMS7003;54688;52.376;16.744;2023-12-07T01:14:39;68;53;
67892;PMS7003;54688;52.376;16.744;2023-12-07T01:17:41;75;58;
67892;PMS7003;54688;52.376;16.744;2023-12-07T01:20:43;77;61;
67892;PMS7003;54688;52.376;16.744;2023-12-07T01:23:45;76;57;
67892;PMS7003;54688;52.376;16.744;2023-12-07T01:26:47;72;53;
67892;PMS7003;54688;52.376;16.744;2023-12-07T01:29:50;70;55;
67892;PMS7003;54688;52.376;16.744;2023-12-07T01:32:52;81;65;
67892;PMS7003;54688;52.376;16.744;2023-12-07T01:35:54;67;54;
67892;PMS7003;54688;52.376;16.744;2023-12-07T01:38:56;70;54;
67892;PMS7003;54688;52.376;16.744;2023-12-07T01:41:58;80;61;
67892;PMS7003;54688;52.376;16.744;2023-12-07T01:45:01;79;66;
67892;PMS7003;54688;52.376;16.744;2023-12-07T01:48:04;76;66;
67892;PMS7003;54688;52.376;16.744;2023-12-07T01:51:06;71;54;
67892;PMS7003;54688;52.376;16.744;2023-12-07T01:54:09;77;61;
67892;PMS7003;54688;52.376;16.744;2023-12-07T01:57:11;79;67;
67892;PMS7003;54688;52.376;16.744;2023-12-07T02:00:13;79;64;
67892;PMS7003;54688;52.376;16.744;2023-12-07T02:03:16;78;66;
67892;PMS7003;54688;52.376;16.744;2023-12-07T02:06:19;78;60;
67892;PMS7003;54688;52.376;16.744;2023-12-07T02:09:21;79;61;
67892;PMS7003;54688;52.376;16.744;2023-12-07T02:12:24;78;57;
67892;PMS7003;54688;52.376;16.744;2023-12-07T02:15:26;81;63;
67892;PMS7003;54688;52.376;16.744;2023-12-07T02:18:33;79;66;
67892;PMS7003;54688;52.376;16.744;2023-12-07T02:21:41;76;60;
67892;PMS7003;54688;52.376;16.744;2023-12-07T02:24:48;77;59;
67892;PMS7003;54688;52.376;16.744;2023-12-07T02:27:58;76;55;
67892;PMS7003;54688;52.376;16.744;2023-12-07T02:31:00;78;60;
67892;PMS7003;54688;52.376;16.744;2023-12-07T02:34:02;78;59;
67892;PMS7003;54688;52.376;16.744;2023-12-07T02:37:05;81;63;
67892;PMS7003;54688;52.376;16.744;2023-12-07T02:40:09;74;61;
67892;PMS7003;54688;52.376;16.744;2023-12-07T02:43:11;72;57;
67892;PMS7003;54688;52.376;16.744;2023-12-07T02:46:14;72;55;
67892;PMS7003;54688;52.376;16.744;2023-12-07T02:49:16;78;56;
67892;PMS7003;54688;52.376;16.744;2023-12-07T02:52:18;75;60;
67892;PMS7003;54688;52.376;16.744;2023-12-07T02:55:21;73;53;
67892;PMS7003;54688;52.376;16.744;2023-12-07T02:58:23;74;56;
67892;PMS7003;54688;52.376;16.744;2023-12-07T03:01:26;79;60;
67892;PMS7003;54688;52.376;16.744;2023-12-07T03:04:28;78;63;
67892;PMS7003;54688;52.376;16.744;2023-12-07T03:07:30;75;60;
67892;PMS7003;54688;52.376;16.744;2023-12-07T03:10:32;74;56;
67892;PMS7003;54688;52.376;16.744;2023-12-07T03:13:35;74;54;
67892;PMS7003;54688;52.376;16.744;2023-12-07T03:16:38;76;57;
67892;PMS7003;54688;52.376;16.744;2023-12-07T03:19:41;74;54;
67892;PMS7003;54688;52.376;16.744;2023-12-07T03:22:44;74;55;
67892;PMS7003;54688;52.376;16.744;2023-12-07T03:25:46;73;54;
67892;PMS7003;54688;52.376;16.744;2023-12-07T03:28:48;68;53;
67892;PMS7003;54688;52.376;16.744;2023-12-07T03:31:50;75;56;
67892;PMS7003;54688;52.376;16.744;2023-12-07T03:34:53;76;57;
67892;PMS7003;54688;52.376;16.744;2023-12-07T03:37:55;70;55;
67892;PMS7003;54688;52.376;16.744;2023-12-07T03:40:58;73;54;
67892;PMS7003;54688;52.376;16.744;2023-12-07T03:44:00;67;52;
67892;PMS7003;54688;52.376;16.744;2023-12-07T03:47:03;73;55;
67892;PMS7003;54688;52.376;16.744;2023-12-07T03:50:06;76;58;
67892;PMS7003;54688;52.376;16.744;2023-12-07T03:53:08;79;59;
67892;PMS7003;54688;52.376;16.744;2023-12-07T03:56:10;75;59;
67892;PMS7003;54688;52.376;16.744;2023-12-07T03:59:13;80;65;
67892;PMS7003;54688;52.376;16.744;2023-12-07T04:02:15;80;65;
67892;PMS7003;54688;52.376;16.744;2023-12-07T04:05:17;73;57;
67892;PMS7003;54688;52.376;16.744;2023-12-07T04:08:20;72;54;
67892;PMS7003;54688;52.376;16.744;2023-12-07T04:11:23;75;59;
67892;PMS7003;54688;52.376;16.744;2023-12-07T04:14:24;78;59;
67892;PMS7003;54688;52.376;16.744;2023-12-07T04:17:27;73;52;
67892;PMS7003;54688;52.376;16.744;2023-12-07T04:20:29;68;54;
67892;PMS7003;54688;52.376;16.744;2023-12-07T04:23:31;74;55;
67892;PMS7003;54688;52.376;16.744;2023-12-07T04:26:34;74;59;
67892;PMS7003;54688;52.376;16.744;2023-12-07T04:29:36;78;65;
67892;PMS7003;54688;52.376;16.744;2023-12-07T04:32:38;71;57;
67892;PMS7003;54688;52.376;16.744;2023-12-07T04:35:41;73;56;
67892;PMS7003;54688;52.376;16.744;2023-12-07T04:38:44;73;54;
67892;PMS7003;54688;52.376;16.744;2023-12-07T04:41:47;71;56;
67892;PMS7003;54688;52.376;16.744;2023-12-07T04:44:48;80;61;
67892;PMS7003;54688;52.376;16.744;2023-12-07T04:47:51;77;58;
67892;PMS7003;54688;52.376;16.744;2023-12-07T04:50:52;77;59;
67892;PMS7003;54688;52.376;16.744;2023-12-07T04:53:55;78;59;
67892;PMS7003;54688;52.376;16.744;2023-12-07T04:56:57;71;54;
67892;PMS7003;54688;52.376;16.744;2023-12-07T05:00:00;74;59;
67892;PMS7003;54688;52.376;16.744;2023-12-07T05:03:03;80;61;
67892;PMS7003;54688;52.376;16.744;2023-12-07T05:06:06;78;60;
67892;PMS7003;54688;52.376;16.744;2023-12-07T05:09:07;76;58;
67892;PMS7003;54688;52.376;16.744;2023-12-07T05:12:09;72;58;
67892;PMS7003;54688;52.376;16.744;2023-12-07T05:15:12;74;57;
67892;PMS7003;54688;52.376;16.744;2023-12-07T05:18:15;72;56;
67892;PMS7003;54688;52.376;16.744;2023-12-07T05:21:18;69;53;
67892;PMS7003;54688;52.376;16.744;2023-12-07T05:24:20;71;54;
67892;PMS7003;54688;52.376;16.744;2023-12-07T05:27:23;78;63;
67892;PMS7003;54688;52.376;16.744;2023-12-07T05:30:25;78;62;
67892;PMS7003;54688;52.376;16.744;2023-12-07T05:33:28;80;61;
67892;PMS7003;54688;52.376;16.744;2023-12-07T05:36:30;81;62;
67892;PMS7003;54688;52.376;16.744;2023-12-07T05:39:32;76;60;
67892;PMS7003;54688;52.376;16.744;2023-12-07T05:42:35;74;57;
67892;PMS7003;54688;52.376;16.744;2023-12-07T05:45:37;76;59;
67892;PMS7003;54688;52.376;16.744;2023-12-07T05:48:39;79;59;
67892;PMS7003;54688;52.376;16.744;2023-12-07T05:51:42;77;65;
67892;PMS7003;54688;52.376;16.744;2023-12-07T05:54:44;76;62;
67892;PMS7003;54688;52.376;16.744;2023-12-07T05:57:46;84;69;
67892;PMS7003;54688;52.376;16.744;2023-12-07T06:00:49;80;70;
67892;PMS7003;54688;52.376;16.744;2023-12-07T06:03:51;73;57;
67892;PMS7003;54688;52.376;16.744;2023-12-07T06:06:53;82;65;
67892;PMS7003;54688;52.376;16.744;2023-12-07T06:09:55;77;60;
67892;PMS7003;54688;52.376;16.744;2023-12-07T06:12:58;77;61;
67892;PMS7003;54688;52.376;16.744;2023-12-07T06:16:00;77;57;
67892;PMS7003;54688;52.376;16.744;2023-12-07T06:19:03;81;64;
67892;PMS7003;54688;52.376;16.744;2023-12-07T06:22:05;78;60;
67892;PMS7003;54688;52.376;16.744;2023-12-07T06:25:08;83;69;
67892;PMS7003;54688;52.376;16.744;2023-12-07T06:28:11;75;58;
67892;PMS7003;54688;52.376;16.744;2023-12-07T06:31:14;75;54;
67892;PMS7003;54688;52.376;16.744;2023-12-07T06:34:16;72;55;
67892;PMS7003;54688;52.376;16.744;2023-12-07T06:37:19;71;53;
67892;PMS7003;54688;52.376;16.744;2023-12-07T06:40:22;75;59;
67892;PMS7003;54688;52.376;16.744;2023-12-07T06:43:24;70;55;
67892;PMS7003;54688;52.376;16.744;2023-12-07T06:46:27;79;61;
67892;PMS7003;54688;52.376;16.744;2023-12-07T06:49:29;77;60;
67892;PMS7003;54688;52.376;16.744;2023-12-07T06:52:32;79;61;
67892;PMS7003;54688;52.376;16.744;2023-12-07T06:55:34;75;61;
67892;PMS7003;54688;52.376;16.744;2023-12-07T06:58:36;83;67;
67892;PMS7003;54688;52.376;16.744;2023-12-07T07:01:38;76;61;
67892;PMS7003;54688;52.376;16.744;2023-12-07T07:04:40;75;58;
67892;PMS7003;54688;52.376;16.744;2023-12-07T07:07:42;82;67;
67892;PMS7003;54688;52.376;16.744;2023-12-07T07:10:45;76;64;
67892;PMS7003;54688;52.376;16.744;2023-12-07T07:13:47;80;61;
67892;PMS7003;54688;52.376;16.744;2023-12-07T07:16:49;79;63;
67892;PMS7003;54688;52.376;16.744;2023-12-07T07:19:52;79;68;
67892;PMS7003;54688;52.376;16.744;2023-12-07T07:22:53;83;69;
67892;PMS7003;54688;52.376;16.744;2023-12-07T07:25:55;80;70;
67892;PMS7003;54688;52.376;16.744;2023-12-07T07:28:58;81;68;
67892;PMS7003;54688;52.376;16.744;2023-12-07T07:32:00;84;73;
67892;PMS7003;54688;52.376;16.744;2023-12-07T07:35:03;80;70;
67892;PMS7003;54688;52.376;16.744;2023-12-07T07:38:05;77;63;
67892;PMS7003;54688;52.376;16.744;2023-12-07T07:41:08;81;69;
67892;PMS7003;54688;52.376;16.744;2023-12-07T07:44:10;81;67;
67892;PMS7003;54688;52.376;16.744;2023-12-07T07:47:12;81;67;
67892;PMS7003;54688;52.376;16.744;2023-12-07T07:50:15;79;58;
67892;PMS7003;54688;52.376;16.744;2023-12-07T07:53:17;77;62;
67892;PMS7003;54688;52.376;16.744;2023-12-07T07:56:19;78;63;
67892;PMS7003;54688;52.376;16.744;2023-12-07T07:59:21;81;72;
67892;PMS7003;54688;52.376;16.744;2023-12-07T08:02:24;78;65;
67892;PMS7003;54688;52.376;16.744;2023-12-07T08:05:26;80;68;
67892;PMS7003;54688;52.376;16.744;2023-12-07T08:08:28;79;63;
67892;PMS7003;54688;52.376;16.744;2023-12-07T08:11:31;80;68;
67892;PMS7003;54688;52.376;16.744;2023-12-07T08:14:35;83;69;
67892;PMS7003;54688;52.376;16.744;2023-12-07T08:17:37;80;67;
67892;PMS7003;54688;52.376;16.744;2023-12-07T08:20:40;81;69;
67892;PMS7003;54688;52.376;16.744;2023-12-07T08:23:42;75;59;
67892;PMS7003;54688;52.376;16.744;2023-12-07T08:26:44;79;65;
67892;PMS7003;54688;52.376;16.744;2023-12-07T08:29:47;71;53;
67892;PMS7003;54688;52.376;16.744;2023-12-07T08:32:49;77;63;
67892;PMS7003;54688;52.376;16.744;2023-12-07T08:35:51;75;60;
67892;PMS7003;54688;52.376;16.744;2023-12-07T08:38:53;75;61;
67892;PMS7003;54688;52.376;16.744;2023-12-07T08:41:56;79;64;
67892;PMS7003;54688;52.376;16.744;2023-12-07T08:44:58;79;59;
67892;PMS7003;54688;52.376;16.744;2023-12-07T08:48:00;83;67;
67892;PMS7003;54688;52.376;16.744;2023-12-07T08:51:03;78;60;
67892;PMS7003;54688;52.376;16.744;2023-12-07T08:54:06;81;65;
67892;PMS7003;54688;52.376;16.744;2023-12-07T08:57:08;78;60;
67892;PMS7003;54688;52.376;16.744;2023-12-07T09:00:11;80;64;
67892;PMS7003;54688;52.376;16.744;2023-12-07T09:03:14;82;64;
67892;PMS7003;54688;52.376;16.744;2023-12-07T09:06:17;77;63;
67892;PMS7003;54688;52.376;16.744;2023-12-07T09:09:19;79;60;
67892;PMS7003;54688;52.376;16.744;2023-12-07T09:12:21;81;65;
67892;PMS7003;54688;52.376;16.744;2023-12-07T09:15:24;76;64;
67892;PMS7003;54688;52.376;16.744;2023-12-07T09:18:27;76;67;
67892;PMS7003;54688;52.376;16.744;2023-12-07T09:21:29;85;70;
67892;PMS7003;54688;52.376;16.744;2023-12-07T09:24:31;80;66;
67892;PMS7003;54688;52.376;16.744;2023-12-07T09:27:34;79;65;
67892;PMS7003;54688;52.376;16.744;2023-12-07T09:30:36;87;72;
67892;PMS7003;54688;52.376;16.744;2023-12-07T09:33:38;86;74;
67892;PMS7003;54688;52.376;16.744;2023-12-07T09:36:41;84;72;
67892;PMS7003;54688;52.376;16.744;2023-12-07T09:39:43;81;72;
67892;PMS7003;54688;52.376;16.744;2023-12-07T09:42:45;97;79;
67892;PMS7003;54688;52.376;16.744;2023-12-07T09:45:48;87;74;
67892;PMS7003;54688;52.376;16.744;2023-12-07T09:48:50;86;72;
67892;PMS7003;54688;52.376;16.744;2023-12-07T09:51:54;78;70;
67892;PMS7003;54688;52.376;16.744;2023-12-07T09:54:57;84;73;
67892;PMS7003;54688;52.376;16.744;2023-12-07T09:57:59;87;73;
67892;PMS7003;54688;52.376;16.744;2023-12-07T10:01:02;79;67;
67892;PMS7003;54688;52.376;16.744;2023-12-07T10:04:20;91;73;
67892;PMS7003;54688;52.376;16.744;2023-12-07T10:07:32;93;76;
67892;PMS7003;54688;52.376;16.744;2023-12-07T10:10:37;84;70;
67892;PMS7003;54688;52.376;16.744;2023-12-07T10:13:39;88;78;
67892;PMS7003;54688;52.376;16.744;2023-12-07T10:16:52;86;74;
67892;PMS7003;54688;52.376;16.744;2023-12-07T10:20:07;84;70;
67892;PMS7003;54688;52.376;16.744;2023-12-07T10:23:09;80;68;
67892;PMS7003;54688;52.376;16.744;2023-12-07T10:26:12;85;74;
67892;PMS7003;54688;52.376;16.744;2023-12-07T10:29:14;94;79;
67892;PMS7003;54688;52.376;16.744;2023-12-07T10:32:19;87;79;
67892;PMS7003;54688;52.376;16.744;2023-12-07T10:35:21;97;73;
67892;PMS7003;54688;52.376;16.744;2023-12-07T10:38:24;86;70;
67892;PMS7003;54688;52.376;16.744;2023-12-07T10:41:26;88;76;
67892;PMS7003;54688;52.376;16.744;2023-12-07T10:44:28;90;76;
67892;PMS7003;54688;52.376;16.744;2023-12-07T10:47:33;94;79;
67892;PMS7003;54688;52.376;16.744;2023-12-07T10:50:38;88;75;
67892;PMS7003;54688;52.376;16.744;2023-12-07T10:53:44;97;76;
67892;PMS7003;54688;52.376;16.744;2023-12-07T10:56:48;83;69;
67892;PMS7003;54688;52.376;16.744;2023-12-07T10:59:50;80;70;
67892;PMS7003;54688;52.376;16.744;2023-12-07T11:02:54;90;79;
67892;PMS7003;54688;52.376;16.744;2023-12-07T11:05:57;85;74;
67892;PMS7003;54688;52.376;16.744;2023-12-07T11:09:02;91;77;
67892;PMS7003;54688;52.376;16.744;2023-12-07T11:12:09;96;80;
67892;PMS7003;54688;52.376;16.744;2023-12-07T11:15:14;88;70;
67892;PMS7003;54688;52.376;16.744;2023-12-07T11:18:17;90;81;
67892;PMS7003;54688;52.376;16.744;2023-12-07T11:21:20;96;85;
67892;PMS7003;54688;52.376;16.744;2023-12-07T11:24:23;88;79;
67892;PMS7003;54688;52.376;16.744;2023-12-07T11:27:29;98;80;
67892;PMS7003;54688;52.376;16.744;2023-12-07T11:30:32;94;78;
67892;PMS7003;54688;52.376;16.744;2023-12-07T11:33:37;98;78;
67892;PMS7003;54688;52.376;16.744;2023-12-07T11:36:39;84;71;
67892;PMS7003;54688;52.376;16.744;2023-12-07T11:39:42;91;76;
67892;PMS7003;54688;52.376;16.744;2023-12-07T11:42:45;95;81;
67892;PMS7003;54688;52.376;16.744;2023-12-07T11:45:48;89;78;
67892;PMS7003;54688;52.376;16.744;2023-12-07T11:48:51;96;84;
67892;PMS7003;54688;52.376;16.744;2023-12-07T11:51:54;98;83;
67892;PMS7003;54688;52.376;16.744;2023-12-07T11:54:56;86;79;
67892;PMS7003;54688;52.376;16.744;2023-12-07T11:57:59;88;80;
67892;PMS7003;54688;52.376;16.744;2023-12-07T12:01:02;85;70;
67892;PMS7003;54688;52.376;16.744;2023-12-07T12:04:05;93;79;
67892;PMS7003;54688;52.376;16.744;2023-12-07T12:07:08;95;80;
67892;PMS7003;54688;52.376;16.744;2023-12-07T12:10:10;100;75;
67892;PMS7003;54688;52.376;16.744;2023-12-07T12:13:14;107;89;
67892;PMS7003;54688;52.376;16.744;2023-12-07T12:16:17;92;78;
67892;PMS7003;54688;52.376;16.744;2023-12-07T12:19:20;108;87;
67892;PMS7003;54688;52.376;16.744;2023-12-07T12:22:23;117;88;
67892;PMS7003;54688;52.376;16.744;2023-12-07T12:25:26;103;85;
67892;PMS7003;54688;52.376;16.744;2023-12-07T12:28:29;97;90;
67892;PMS7003;54688;52.376;16.744;2023-12-07T12:31:32;107;88;
67892;PMS7003;54688;52.376;16.744;2023-12-07T12:34:34;106;88;
67892;PMS7003;54688;52.376;16.744;2023-12-07T12:37:38;101;86;
67892;PMS7003;54688;52.376;16.744;2023-12-07T12:40:40;109;84;
67892;PMS7003;54688;52.376;16.744;2023-12-07T12:43:42;95;79;
67892;PMS7003;54688;52.376;16.744;2023-12-07T12:46:45;86;74;
67892;PMS7003;54688;52.376;16.744;2023-12-07T12:52:46;91;82;
67892;PMS7003;54688;52.376;16.744;2023-12-07T12:55:48;103;87;
67892;PMS7003;54688;52.376;16.744;2023-12-07T12:58:51;106;85;
67892;PMS7003;54688;52.376;16.744;2023-12-07T13:01:54;110;92;
67892;PMS7003;54688;52.376;16.744;2023-12-07T13:04:56;103;84;
67892;PMS7003;54688;52.376;16.744;2023-12-07T13:07:59;112;94;
67892;PMS7003;54688;52.376;16.744;2023-12-07T13:11:01;108;87;
67892;PMS7003;54688;52.376;16.744;2023-12-07T13:14:04;96;80;
67892;PMS7003;54688;52.376;16.744;2023-12-07T13:17:06;92;79;
67892;PMS7003;54688;52.376;16.744;2023-12-07T13:20:10;104;89;
67892;PMS7003;54688;52.376;16.744;2023-12-07T13:23:12;85;76;
67892;PMS7003;54688;52.376;16.744;2023-12-07T13:26:14;109;92;
67892;PMS7003;54688;52.376;16.744;2023-12-07T13:29:16;105;90;
67892;PMS7003;54688;52.376;16.744;2023-12-07T13:32:18;96;82;
67892;PMS7003;54688;52.376;16.744;2023-12-07T13:35:20;99;91;
67892;PMS7003;54688;52.376;16.744;2023-12-07T13:38:23;95;85;
67892;PMS7003;54688;52.376;16.744;2023-12-07T13:41:25;96;81;
67892;PMS7003;54688;52.376;16.744;2023-12-07T13:44:27;109;95;
67892;PMS7003;54688;52.376;16.744;2023-12-07T13:47:29;113;93;
67892;PMS7003;54688;52.376;16.744;2023-12-07T13:50:31;115;92;
67892;PMS7003;54688;52.376;16.744;2023-12-07T13:53:33;123;105;
67892;PMS7003;54688;52.376;16.744;2023-12-07T13:56:35;118;103;
67892;PMS7003;54688;52.376;16.744;2023-12-07T13:59:38;119;102;
67892;PMS7003;54688;52.376;16.744;2023-12-07T14:02:40;128;109;
67892;PMS7003;54688;52.376;16.744;2023-12-07T14:05:42;139;111;
67892;PMS7003;54688;52.376;16.744;2023-12-07T14:08:45;123;104;
67892;PMS7003;54688;52.376;16.744;2023-12-07T14:11:48;133;111;
67892;PMS7003;54688;52.376;16.744;2023-12-07T14:14:50;111;96;
67892;PMS7003;54688;52.376;16.744;2023-12-07T14:17:52;116;98;
67892;PMS7003;54688;52.376;16.744;2023-12-07T14:20:54;113;97;
67892;PMS7003;54688;52.376;16.744;2023-12-07T14:23:57;129;103;
67892;PMS7003;54688;52.376;16.744;2023-12-07T14:26:59;133;105;
67892;PMS7003;54688;52.376;16.744;2023-12-07T14:30:01;124;104;
67892;PMS7003;54688;52.376;16.744;2023-12-07T14:33:04;119;96;
67892;PMS7003;54688;52.376;16.744;2023-12-07T14:36:09;113;95;
67892;PMS7003;54688;52.376;16.744;2023-12-07T14:39:13;102;88;
67892;PMS7003;54688;52.376;16.744;2023-12-07T14:42:15;120;99;
67892;PMS7003;54688;52.376;16.744;2023-12-07T14:45:19;137;109;
67892;PMS7003;54688;52.376;16.744;2023-12-07T14:48:21;137;113;
67892;PMS7003;54688;52.376;16.744;2023-12-07T14:51:24;129;109;
67892;PMS7003;54688;52.376;16.744;2023-12-07T14:54:26;129;106;
67892;PMS7003;54688;52.376;16.744;2023-12-07T14:57:29;138;112;
67892;PMS7003;54688;52.376;16.744;2023-12-07T15:00:31;137;118;
67892;PMS7003;54688;52.376;16.744;2023-12-07T15:03:34;126;112;
67892;PMS7003;54688;52.376;16.744;2023-12-07T15:06:36;130;106;
67892;PMS7003;54688;52.376;16.744;2023-12-07T15:09:39;145;125;
67892;PMS7003;54688;52.376;16.744;2023-12-07T15:12:41;132;111;
67892;PMS7003;54688;52.376;16.744;2023-12-07T15:15:44;124;105;
67892;PMS7003;54688;52.376;16.744;2023-12-07T15:18:46;111;101;
67892;PMS7003;54688;52.376;16.744;2023-12-07T15:21:48;115;102;
67892;PMS7003;54688;52.376;16.744;2023-12-07T15:24:51;107;95;
67892;PMS7003;54688;52.376;16.744;2023-12-07T15:27:55;124;104;
67892;PMS7003;54688;52.376;16.744;2023-12-07T15:30:57;125;108;
67892;PMS7003;54688;52.376;16.744;2023-12-07T15:34:00;164;144;
67892;PMS7003;54688;52.376;16.744;2023-12-07T15:37:02;160;137;
67892;PMS7003;54688;52.376;16.744;2023-12-07T15:40:05;152;133;
67892;PMS7003;54688;52.376;16.744;2023-12-07T15:43:08;148;121;
67892;PMS7003;54688;52.376;16.744;2023-12-07T15:46:10;141;122;
67892;PMS7003;54688;52.376;16.744;2023-12-07T15:49:13;138;120;
67892;PMS7003;54688;52.376;16.744;2023-12-07T15:52:15;132;113;
67892;PMS7003;54688;52.376;16.744;2023-12-07T15:55:18;135;115;
67892;PMS7003;54688;52.376;16.744;2023-12-07T15:58:20;138;113;
67892;PMS7003;54688;52.376;16.744;2023-12-07T16:01:22;126;109;
67892;PMS7003;54688;52.376;16.744;2023-12-07T16:04:24;126;106;
67892;PMS7003;54688;52.376;16.744;2023-12-07T16:07:27;126;106;
67892;PMS7003;54688;52.376;16.744;2023-12-07T16:10:30;119;93;
67892;PMS7003;54688;52.376;16.744;2023-12-07T16:13:32;116;101;
67892;PMS7003;54688;52.376;16.744;2023-12-07T16:16:34;111;95;
67892;PMS7003;54688;52.376;16.744;2023-12-07T16:19:37;147;116;
67892;PMS7003;54688;52.376;16.744;2023-12-07T16:22:39;128;111;
67892;PMS7003;54688;52.376;16.744;2023-12-07T16:25:41;121;111;
67892;PMS7003;54688;52.376;16.744;2023-12-07T16:28:43;111;97;
67892;PMS7003;54688;52.376;16.744;2023-12-07T16:31:45;135;114;
67892;PMS7003;54688;52.376;16.744;2023-12-07T16:34:48;126;104;
67892;PMS7003;54688;52.376;16.744;2023-12-07T16:37:50;135;114;
67892;PMS7003;54688;52.376;16.744;2023-12-07T16:43:51;127;106;
67892;PMS7003;54688;52.376;16.744;2023-12-07T16:46:53;140;123;
67892;PMS7003;54688;52.376;16.744;2023-12-07T16:49:55;116;104;
67892;PMS7003;54688;52.376;16.744;2023-12-07T16:52:58;114;99;
67892;PMS7003;54688;52.376;16.744;2023-12-07T16:56:00;122;102;
67892;PMS7003;54688;52.376;16.744;2023-12-07T16:59:02;117;101;
67892;PMS7003;54688;52.376;16.744;2023-12-07T17:02:04;116;96;
67892;PMS7003;54688;52.376;16.744;2023-12-07T17:05:07;109;93;
67892;PMS7003;54688;52.376;16.744;2023-12-07T17:08:10;114;95;
67892;PMS7003;54688;52.376;16.744;2023-12-07T17:11:12;108;90;
67892;PMS7003;54688;52.376;16.744;2023-12-07T17:14:15;116;97;
67892;PMS7003;54688;52.376;16.744;2023-12-07T17:17:17;129;104;
67892;PMS7003;54688;52.376;16.744;2023-12-07T17:20:20;126;109;
67892;PMS7003;54688;52.376;16.744;2023-12-07T17:23:23;120;105;
67892;PMS7003;54688;52.376;16.744;2023-12-07T17:26:25;132;108;
67892;PMS7003;54688;52.376;16.744;2023-12-07T17:29:27;116;107;
67892;PMS7003;54688;52.376;16.744;2023-12-07T17:32:29;120;105;
67892;PMS7003;54688;52.376;16.744;2023-12-07T17:35:31;115;96;
67892;PMS7003;54688;52.376;16.744;2023-12-07T17:38:33;119;102;
67892;PMS7003;54688;52.376;16.744;2023-12-07T17:41:36;115;97;
67892;PMS7003;54688;52.376;16.744;2023-12-07T17:44:38;115;98;
67892;PMS7003;54688;52.376;16.744;2023-12-07T17:47:41;105;96;
67892;PMS7003;54688;52.376;16.744;2023-12-07T17:50:45;115;94;
67892;PMS7003;54688;52.376;16.744;2023-12-07T17:53:47;114;98;
67892;PMS7003;54688;52.376;16.744;2023-12-07T17:56:50;110;90;
67892;PMS7003;54688;52.376;16.744;2023-12-07T17:59:52;110;92;
67892;PMS7003;54688;52.376;16.744;2023-12-07T18:02:55;125;111;
67892;PMS7003;54688;52.376;16.744;2023-12-07T18:05:57;150;131;
67892;PMS7003;54688;52.376;16.744;2023-12-07T18:09:00;130;112;
67892;PMS7003;54688;52.376;16.744;2023-12-07T18:12:03;156;124;
67892;PMS7003;54688;52.376;16.744;2023-12-07T18:18:06;122;98;
67892;PMS7003;54688;52.376;16.744;2023-12-07T18:21:08;119;98;
67892;PMS7003;54688;52.376;16.744;2023-12-07T18:24:11;130;110;
67892;PMS7003;54688;52.376;16.744;2023-12-07T18:27:13;151;121;
67892;PMS7003;54688;52.376;16.744;2023-12-07T18:30:15;130;116;
67892;PMS7003;54688;52.376;16.744;2023-12-07T18:33:18;136;115;
67892;PMS7003;54688;52.376;16.744;2023-12-07T18:36:21;124;107;
67892;PMS7003;54688;52.376;16.744;2023-12-07T18:39:24;126;110;
67892;PMS7003;54688;52.376;16.744;2023-12-07T18:42:26;130;112;
67892;PMS7003;54688;52.376;16.744;2023-12-07T18:45:28;127;107;
67892;PMS7003;54688;52.376;16.744;2023-12-07T18:48:30;133;113;
67892;PMS7003;54688;52.376;16.744;2023-12-07T18:51:32;136;114;
67892;PMS7003;54688;52.376;16.744;2023-12-07T18:54:34;127;103;
67892;PMS7003;54688;52.376;16.744;2023-12-07T18:57:40;141;114;
67892;PMS7003;54688;52.376;16.744;2023-12-07T19:00:42;126;108;
67892;PMS7003;54688;52.376;16.744;2023-12-07T19:03:44;118;96;
67892;PMS7003;54688;52.376;16.744;2023-12-07T19:06:47;140;110;
67892;PMS7003;54688;52.376;16.744;2023-12-07T19:09:49;127;108;
67892;PMS7003;54688;52.376;16.744;2023-12-07T19:12:51;131;108;
67892;PMS7003;54688;52.376;16.744;2023-12-07T19:15:53;120;101;
67892;PMS7003;54688;52.376;16.744;2023-12-07T19:18:55;114;98;
67892;PMS7003;54688;52.376;16.744;2023-12-07T19:21:57;122;105;
67892;PMS7003;54688;52.376;16.744;2023-12-07T19:25:01;155;131;
67892;PMS7003;54688;52.376;16.744;2023-12-07T19:28:03;142;116;
67892;PMS7003;54688;52.376;16.744;2023-12-07T19:31:06;112;103;
67892;PMS7003;54688;52.376;16.744;2023-12-07T19:34:08;132;106;
67892;PMS7003;54688;52.376;16.744;2023-12-07T19:37:11;117;103;
67892;PMS7003;54688;52.376;16.744;2023-12-07T19:40:13;114;99;
67892;PMS7003;54688;52.376;16.744;2023-12-07T19:43:16;123;100;
67892;PMS7003;54688;52.376;16.744;2023-12-07T19:46:18;112;95;
67892;PMS7003;54688;52.376;16.744;2023-12-07T19:49:20;116;101;